createdAt,value
2022-10-03T00:00:32.707Z,0.05
2022-10-03T00:03:20.860Z,0.20
2022-10-03T00:06:09.349Z,0.20
2022-10-03T00:08:54.279Z,0.20
2022-10-03T00:11:39.296Z,0.28
2022-10-03T00:14:28.776Z,0.30
2022-10-03T00:17:14.539Z,0.10
2022-10-03T00:20:18.937Z,0.20
2022-10-03T00:23:02.177Z,0.22
2022-10-03T00:25:58.050Z,0.17
2022-10-03T00:28:42.854Z,0.10
2022-10-03T00:31:15.046Z,0.20
2022-10-03T00:34:01.193Z,0.20
2022-10-03T00:36:52.373Z,0.35
2022-10-03T00:39:37.366Z,0.17
2022-10-03T00:42:07.201Z,0.35
2022-10-03T00:44:52.692Z,0.32
2022-10-03T00:47:50.475Z,0.20
2022-10-03T00:50:38.798Z,0.28
2022-10-03T00:53:14.491Z,0.20
2022-10-03T00:56:06.896Z,0.30
2022-10-03T00:58:45.367Z,0.38
2022-10-03T01:01:34.159Z,0.30
2022-10-03T01:04:27.648Z,0.20
2022-10-03T01:07:24.935Z,0.40
2022-10-03T01:09:58.901Z,0.20
2022-10-03T01:12:40.626Z,0.20
2022-10-03T01:15:26.448Z,0.20
2022-10-03T01:18:12.742Z,0.30
2022-10-03T01:20:51.044Z,0.30
2022-10-03T01:23:29.676Z,0.10
2022-10-03T01:26:11.700Z,0.20
2022-10-03T01:29:12.380Z,0.20
2022-10-03T01:31:54.113Z,0.30
2022-10-03T01:38:20.379Z,0.90
2022-10-03T01:40:55.742Z,0.95
2022-10-03T01:43:32.919Z,0.40
2022-10-03T01:46:18.045Z,0.90
2022-10-03T01:49:01.071Z,0.30
2022-10-03T01:51:52.471Z,0.60
2022-10-03T01:54:30.658Z,0.40
2022-10-03T01:57:03.883Z,0.30
2022-10-03T01:59:51.712Z,0.20
2022-10-03T02:02:33.892Z,0.50
2022-10-03T02:05:08.062Z,0.30
2022-10-03T02:07:43.519Z,0.40
2022-10-03T02:10:39.743Z,0.30
2022-10-03T02:13:28.713Z,0.20
2022-10-03T02:16:10.164Z,0.30
2022-10-03T02:22:47.167Z,0.30
2022-10-03T02:25:50.283Z,0.40
2022-10-03T02:28:30.459Z,0.40
2022-10-03T02:31:19.998Z,0.32
2022-10-03T02:34:15.929Z,0.20
2022-10-03T02:37:12.968Z,0.50
2022-10-03T02:39:54.841Z,0.35
2022-10-03T02:42:30.124Z,0.50
2022-10-03T02:45:34.727Z,0.20
2022-10-03T02:48:31.954Z,0.35
2022-10-03T02:51:20.446Z,0.40
2022-10-03T02:54:08.781Z,0.32
2022-10-03T02:56:56.430Z,0.20
2022-10-03T02:59:44.828Z,1.17
2022-10-03T03:02:43.663Z,1.55
2022-10-03T03:05:12.941Z,0.40
2022-10-03T03:08:06.844Z,0.55
2022-10-03T03:10:43.851Z,0.40
2022-10-03T03:13:45.822Z,0.30
2022-10-03T03:16:33.119Z,0.30
2022-10-03T03:19:38.179Z,0.50
2022-10-03T03:22:32.268Z,0.40
2022-10-03T03:25:21.750Z,0.47
2022-10-03T03:27:58.339Z,0.50
2022-10-03T03:30:38.068Z,0.90
2022-10-03T03:33:45.404Z,0.38
2022-10-03T03:36:30.011Z,0.50
2022-10-03T03:39:06.475Z,0.30
2022-10-03T03:41:56.934Z,0.40
2022-10-03T03:44:24.745Z,0.43
2022-10-03T03:47:16.417Z,0.43
2022-10-03T03:50:07.213Z,0.43
2022-10-03T03:53:11.561Z,0.30
2022-10-03T03:56:23.356Z,0.60
2022-10-03T03:59:20.361Z,0.85
2022-10-03T04:02:14.347Z,0.40
2022-10-03T04:05:01.089Z,0.50
2022-10-03T04:07:39.735Z,0.50
2022-10-03T04:10:38.283Z,0.50
2022-10-03T04:13:47.767Z,0.60
2022-10-03T04:19:00.896Z,0.50
2022-10-03T04:21:40.638Z,0.50
2022-10-03T04:24:30.571Z,0.55
2022-10-03T04:27:32.388Z,0.40
2022-10-03T04:30:09.926Z,0.50
2022-10-03T04:32:42.448Z,0.80
2022-10-03T04:35:30.631Z,0.60
2022-10-03T04:38:15.835Z,0.50
2022-10-03T04:41:16.957Z,0.70
2022-10-03T04:44:13.211Z,0.65
2022-10-03T04:46:50.421Z,0.65
2022-10-03T04:49:28.969Z,0.80
2022-10-03T04:52:15.955Z,0.60
2022-10-03T04:54:54.844Z,0.57
2022-10-03T04:57:44.661Z,0.68
2022-10-03T05:00:31.271Z,0.73
2022-10-03T05:03:22.457Z,0.63
2022-10-03T05:05:59.682Z,0.50
2022-10-03T05:08:38.853Z,0.63
2022-10-03T05:11:35.950Z,0.73
2022-10-03T05:14:08.320Z,0.50
2022-10-03T05:17:04.661Z,0.70
2022-10-03T05:19:37.300Z,0.70
2022-10-03T05:22:03.670Z,0.77
2022-10-03T05:24:51.386Z,0.63
2022-10-03T05:27:39.707Z,0.70
2022-10-03T05:30:36.289Z,0.70
2022-10-03T05:33:31.599Z,0.50
2022-10-03T05:36:16.165Z,0.73
2022-10-03T05:39:07.275Z,0.80
2022-10-03T05:41:36.359Z,0.70
2022-10-03T05:44:09.462Z,0.90
2022-10-03T05:47:03.568Z,0.80
2022-10-03T05:49:57.249Z,0.70
2022-10-03T05:52:26.430Z,0.60
2022-10-03T05:55:16.623Z,0.77
2022-10-03T05:58:01.885Z,0.65
2022-10-03T06:00:59.820Z,0.60
2022-10-03T06:03:56.520Z,0.80
2022-10-03T06:06:42.578Z,0.90
2022-10-03T06:09:30.140Z,0.63
2022-10-03T06:12:14.910Z,0.57
2022-10-03T06:15:06.475Z,0.82
2022-10-03T06:17:42.948Z,0.70
2022-10-03T06:20:30.837Z,0.88
2022-10-03T06:23:15.727Z,0.68
2022-10-03T06:26:04.284Z,0.95
2022-10-03T06:28:56.315Z,0.77
2022-10-03T06:31:51.686Z,0.70
2022-10-03T06:34:50.527Z,0.70
2022-10-03T06:37:31.006Z,0.70
2022-10-03T06:40:35.229Z,0.90
2022-10-03T06:43:23.437Z,1.00
2022-10-03T06:46:16.008Z,0.70
2022-10-03T06:49:26.337Z,0.75
2022-10-03T06:52:12.898Z,3.45
2022-10-03T06:54:45.404Z,1.10
2022-10-03T06:57:31.924Z,0.80
2022-10-03T07:00:10.632Z,1.00
2022-10-03T07:02:58.962Z,1.20
2022-10-03T07:05:58.763Z,1.00
2022-10-03T07:08:46.431Z,0.82
2022-10-03T07:11:31.242Z,0.95
2022-10-03T07:14:30.561Z,0.90
2022-10-03T07:17:28.828Z,1.08
2022-10-03T07:20:19.851Z,3.10
2022-10-03T07:23:17.733Z,2.13
2022-10-03T07:25:59.424Z,1.10
2022-10-03T07:28:56.655Z,0.80
2022-10-03T07:31:53.745Z,2.70
2022-10-03T07:34:53.734Z,0.98
2022-10-03T07:38:16.712Z,0.82
2022-10-03T07:40:43.081Z,0.90
2022-10-03T07:43:28.365Z,1.88
2022-10-03T07:46:35.252Z,0.88
2022-10-03T07:49:07.741Z,0.90
2022-10-03T07:52:11.927Z,1.00
2022-10-03T07:55:16.120Z,0.98
2022-10-03T07:58:04.318Z,0.75
2022-10-03T08:01:02.504Z,0.80
2022-10-03T08:03:47.237Z,0.90
2022-10-03T08:06:26.383Z,0.90
2022-10-03T08:09:15.864Z,0.90
2022-10-03T08:14:19.240Z,0.90
2022-10-03T08:16:52.656Z,1.13
2022-10-03T08:19:52.755Z,0.70
2022-10-03T08:22:24.556Z,1.23
2022-10-03T08:25:22.590Z,0.70
2022-10-03T08:27:58.651Z,0.80
2022-10-03T08:30:34.458Z,0.80
2022-10-03T08:33:39.122Z,0.80
2022-10-03T08:36:42.554Z,6.82
2022-10-03T08:39:40.804Z,5.28
2022-10-03T08:42:22.413Z,2.78
2022-10-03T08:45:10.706Z,2.80
2022-10-03T08:47:59.074Z,2.65
2022-10-03T08:50:45.733Z,3.10
2022-10-03T08:53:31.350Z,2.67
2022-10-03T08:56:15.045Z,4.53
2022-10-03T08:58:57.004Z,1.85
2022-10-03T09:02:03.217Z,3.28
2022-10-03T09:05:01.769Z,3.67
2022-10-03T09:07:53.262Z,5.45
2022-10-03T09:11:02.184Z,3.67
2022-10-03T09:13:53.519Z,4.70
2022-10-03T09:16:55.048Z,2.47
2022-10-03T09:20:09.176Z,2.65
2022-10-03T09:22:47.588Z,2.42
2022-10-03T09:25:30.359Z,3.40
2022-10-03T09:28:34.389Z,8.15
2022-10-03T09:31:19.135Z,3.78
2022-10-03T09:33:49.168Z,6.82
2022-10-03T09:36:47.723Z,8.55
2022-10-03T09:39:32.573Z,10.45
2022-10-03T09:42:24.482Z,6.18
2022-10-03T09:45:16.141Z,8.52
2022-10-03T09:48:08.772Z,3.78
2022-10-03T09:50:55.201Z,3.45
2022-10-03T09:53:41.230Z,4.25
2022-10-03T09:56:25.971Z,4.90
2022-10-03T09:59:12.144Z,2.30
2022-10-03T10:02:02.908Z,2.10
2022-10-03T10:04:54.773Z,2.20
2022-10-03T10:07:40.406Z,2.90
2022-10-03T10:10:30.885Z,2.63
2022-10-03T10:13:12.092Z,2.75
2022-10-03T10:15:47.577Z,1.73
2022-10-03T10:18:28.747Z,2.45
2022-10-03T10:21:25.261Z,2.53
2022-10-03T10:24:25.885Z,3.13
2022-10-03T10:27:13.840Z,3.80
2022-10-03T10:30:12.656Z,3.47
2022-10-03T10:33:09.994Z,1.88
2022-10-03T10:36:06.690Z,3.45
2022-10-03T10:39:00.163Z,3.08
2022-10-03T10:41:32.655Z,2.40
2022-10-03T10:44:05.215Z,1.65
2022-10-03T10:46:56.342Z,1.42
2022-10-03T10:50:00.744Z,1.40
2022-10-03T10:52:46.121Z,1.40
2022-10-03T10:55:36.802Z,2.38
2022-10-03T10:58:28.210Z,2.40
2022-10-03T11:01:26.042Z,1.75
2022-10-03T11:04:29.804Z,1.95
2022-10-03T11:07:08.520Z,1.70
2022-10-03T11:09:46.922Z,1.77
2022-10-03T11:12:38.283Z,2.80
2022-10-03T11:15:43.370Z,1.25
2022-10-03T11:18:47.036Z,1.48
2022-10-03T11:21:37.899Z,1.75
2022-10-03T11:24:50.256Z,2.38
2022-10-03T11:27:54.207Z,2.75
2022-10-03T11:30:39.537Z,2.10
2022-10-03T11:33:31.105Z,2.10
2022-10-03T11:36:13.346Z,4.70
2022-10-03T11:38:55.836Z,3.17
2022-10-03T11:41:52.025Z,2.25
2022-10-03T11:44:33.670Z,2.20
2022-10-03T11:47:18.369Z,2.85
2022-10-03T11:50:10.105Z,1.70
2022-10-03T11:53:01.214Z,1.70
2022-10-03T11:56:00.116Z,1.67
2022-10-03T11:58:48.486Z,1.70
2022-10-03T12:01:44.301Z,2.78
2022-10-03T12:04:35.629Z,1.60
2022-10-03T12:07:59.189Z,3.00
2022-10-03T12:10:39.184Z,3.63
2022-10-03T12:13:32.361Z,2.25
2022-10-03T12:16:00.260Z,2.33
2022-10-03T12:18:44.983Z,1.67
2022-10-03T12:21:17.270Z,3.42
2022-10-03T12:23:59.649Z,2.30
2022-10-03T12:26:43.267Z,2.00
2022-10-03T12:29:13.333Z,2.28
2022-10-03T12:31:50.115Z,2.75
2022-10-03T12:34:37.752Z,3.67
2022-10-03T12:37:19.358Z,2.00
2022-10-03T12:40:02.459Z,2.13
2022-10-03T12:42:34.676Z,1.92
2022-10-03T12:45:30.486Z,1.77
2022-10-03T12:48:46.010Z,2.83
2022-10-03T12:51:31.733Z,3.05
2022-10-03T12:54:08.784Z,2.15
2022-10-03T12:56:51.367Z,4.20
2022-10-03T12:59:29.154Z,3.67
2022-10-03T13:02:07.785Z,5.97
2022-10-03T13:04:57.688Z,3.17
2022-10-03T13:07:41.452Z,2.25
2022-10-03T13:10:42.402Z,3.13
2022-10-03T13:13:31.973Z,2.00
2022-10-03T13:19:03.006Z,1.80
2022-10-03T13:24:26.692Z,1.58
2022-10-03T13:27:06.813Z,1.58
2022-10-03T13:29:44.096Z,0.95
2022-10-03T13:32:17.363Z,1.17
2022-10-03T13:35:41.014Z,1.23
2022-10-03T13:38:26.398Z,1.05
2022-10-03T13:41:12.754Z,1.25
2022-10-03T13:43:46.147Z,1.92
2022-10-03T13:46:38.985Z,1.50
2022-10-03T13:49:14.461Z,2.60
2022-10-03T13:51:50.254Z,2.10
2022-10-03T13:54:43.822Z,2.22
2022-10-03T13:57:18.802Z,1.80
2022-10-03T14:00:11.388Z,1.80
2022-10-03T14:03:13.735Z,1.92
2022-10-03T14:06:04.837Z,1.83
2022-10-03T14:08:49.674Z,2.28
2022-10-03T14:11:42.929Z,1.70
2022-10-03T14:14:38.737Z,1.80
2022-10-03T14:17:51.739Z,1.90
2022-10-03T14:20:41.350Z,1.35
2022-10-03T14:26:10.956Z,1.58
2022-10-03T14:28:49.925Z,2.00
2022-10-03T14:31:31.567Z,2.13
2022-10-03T14:34:14.162Z,1.60
2022-10-03T14:37:22.319Z,1.85
2022-10-03T14:40:02.247Z,1.40
2022-10-03T14:42:31.399Z,1.42
2022-10-03T14:45:07.934Z,1.30
2022-10-03T14:47:37.833Z,1.40
2022-10-03T14:50:05.736Z,1.40
2022-10-03T14:52:38.113Z,1.27
2022-10-03T14:55:13.284Z,1.30
2022-10-03T14:58:09.422Z,1.50
2022-10-03T15:00:49.689Z,1.23
2022-10-03T15:03:16.190Z,1.40
2022-10-03T15:05:54.452Z,1.20
2022-10-03T15:08:23.083Z,1.85
2022-10-03T15:10:53.779Z,1.63
2022-10-03T15:13:23.753Z,1.63
2022-10-03T15:15:52.413Z,2.72
2022-10-03T15:18:23.046Z,1.40
2022-10-03T15:20:54.443Z,1.42
2022-10-03T15:23:26.176Z,1.33
2022-10-03T15:25:54.243Z,1.52
2022-10-03T15:28:36.610Z,1.40
2022-10-03T15:31:15.506Z,1.50
2022-10-03T15:33:44.237Z,1.17
2022-10-03T15:36:17.087Z,1.37
2022-10-03T15:38:49.059Z,1.45
2022-10-03T15:41:28.084Z,1.50
2022-10-03T15:44:14.860Z,1.10
2022-10-03T15:46:48.609Z,1.30
2022-10-03T15:49:26.183Z,1.35
2022-10-03T15:51:54.950Z,1.38
2022-10-03T15:54:24.546Z,1.65
2022-10-03T15:59:34.575Z,1.58
2022-10-03T16:02:12.545Z,1.45
2022-10-03T16:04:41.093Z,1.27
2022-10-03T16:07:17.979Z,1.20
2022-10-03T16:09:53.688Z,1.45
2022-10-03T16:12:50.623Z,1.38
2022-10-03T16:15:37.863Z,1.45
2022-10-03T16:18:11.070Z,1.20
2022-10-03T16:20:43.356Z,1.38
2022-10-03T16:23:23.386Z,1.40
2022-10-03T16:25:57.269Z,1.63
2022-10-03T16:28:31.990Z,1.45
2022-10-03T16:31:03.145Z,1.50
2022-10-03T16:33:39.908Z,1.33
2022-10-03T16:36:16.151Z,1.05
2022-10-03T16:38:53.177Z,1.40
2022-10-03T16:41:23.337Z,1.58
2022-10-03T16:43:59.828Z,1.60
2022-10-03T16:46:33.894Z,1.42
2022-10-03T16:49:27.547Z,1.60
2022-10-03T16:52:15.258Z,1.20
2022-10-03T16:54:43.410Z,1.38
2022-10-03T16:57:18.343Z,1.40
2022-10-03T16:59:49.263Z,1.40
2022-10-03T17:02:21.290Z,1.20
2022-10-03T17:04:51.808Z,1.30
2022-10-03T17:07:25.860Z,1.33
2022-10-03T17:09:55.104Z,1.30
2022-10-03T17:12:37.091Z,1.45
2022-10-03T17:15:15.760Z,1.40
2022-10-03T17:17:48.304Z,1.53
2022-10-03T17:20:48.155Z,1.30
2022-10-03T17:23:29.505Z,1.40
2022-10-03T17:26:14.874Z,1.60
2022-10-03T17:29:02.203Z,1.27
2022-10-03T17:31:53.513Z,1.30
2022-10-03T17:34:32.307Z,1.25
2022-10-03T17:37:14.183Z,1.35
2022-10-03T17:39:46.615Z,1.60
2022-10-03T17:42:31.445Z,1.65
2022-10-03T17:45:16.760Z,1.48
2022-10-03T17:48:14.455Z,1.50
2022-10-03T17:51:02.533Z,1.30
2022-10-03T17:53:32.824Z,1.65
2022-10-03T17:56:14.653Z,1.65
2022-10-03T17:58:45.584Z,1.67
2022-10-03T18:01:20.849Z,1.33
2022-10-03T18:03:51.031Z,1.40
2022-10-03T18:06:29.812Z,1.40
2022-10-03T18:08:56.643Z,1.15
2022-10-03T18:11:28.300Z,1.35
2022-10-03T18:14:15.834Z,1.50
2022-10-03T18:16:47.100Z,2.47
2022-10-03T18:19:44.397Z,1.95
2022-10-03T18:22:26.757Z,1.20
2022-10-03T18:24:56.815Z,1.50
2022-10-03T18:27:52.167Z,1.35
2022-10-03T18:30:24.384Z,1.70
2022-10-03T18:32:53.340Z,1.67
2022-10-03T18:35:27.021Z,1.55
2022-10-03T18:38:18.072Z,1.63
2022-10-03T18:41:01.363Z,1.60
2022-10-03T18:43:32.752Z,1.30
2022-10-03T18:46:07.776Z,1.55
2022-10-03T18:49:02.393Z,1.80
2022-10-03T18:51:58.396Z,1.65
2022-10-03T18:54:49.675Z,1.65
2022-10-03T18:57:37.173Z,1.63
2022-10-03T19:00:18.337Z,1.80
2022-10-03T19:02:57.395Z,1.40
2022-10-03T19:05:32.925Z,1.50
2022-10-03T19:08:11.484Z,1.48
2022-10-03T19:10:44.398Z,1.50
2022-10-03T19:13:16.575Z,1.50
2022-10-03T19:16:06.701Z,1.60
2022-10-03T19:18:42.371Z,1.65
2022-10-03T19:21:18.435Z,2.00
2022-10-03T19:24:13.062Z,1.70
2022-10-03T19:26:45.584Z,1.70
2022-10-03T19:29:20.733Z,1.63
2022-10-03T19:31:50.048Z,1.88
2022-10-03T19:34:25.643Z,2.15
2022-10-03T19:36:54.873Z,1.88
2022-10-03T19:39:22.027Z,1.67
2022-10-03T19:42:18.542Z,1.88
2022-10-03T19:44:45.318Z,2.13
2022-10-03T19:47:30.357Z,2.08
2022-10-03T19:50:04.079Z,1.70
2022-10-03T19:52:35.489Z,1.42
2022-10-03T19:55:13.193Z,1.65
2022-10-03T19:57:43.878Z,1.80
2022-10-03T20:00:17.085Z,2.00
2022-10-03T20:02:45.436Z,2.00
2022-10-03T20:05:20.657Z,1.77
2022-10-03T20:07:54.228Z,1.88
2022-10-03T20:10:47.560Z,1.63
2022-10-03T20:13:14.640Z,1.70
2022-10-03T20:15:44.970Z,2.00
2022-10-03T20:18:18.166Z,1.83
2022-10-03T20:20:48.466Z,2.22
2022-10-03T20:23:17.573Z,1.90
2022-10-03T20:25:52.000Z,1.80
2022-10-03T20:28:23.661Z,2.08
2022-10-03T20:30:53.110Z,1.80
2022-10-03T20:33:26.315Z,2.20
2022-10-03T20:36:14.031Z,1.90
2022-10-03T20:39:18.263Z,1.98
2022-10-03T20:42:10.057Z,2.08
2022-10-03T20:44:49.348Z,2.03
2022-10-03T20:47:37.480Z,1.65
2022-10-03T20:50:12.096Z,1.73
2022-10-03T20:52:38.817Z,1.88
2022-10-03T20:55:06.764Z,2.03
2022-10-03T20:57:45.994Z,1.80
2022-10-03T21:00:15.363Z,1.70
2022-10-03T21:03:15.711Z,2.05
2022-10-03T21:05:51.730Z,1.77
2022-10-03T21:08:37.237Z,2.05
2022-10-03T21:11:15.516Z,1.42
2022-10-03T21:13:52.344Z,1.85
2022-10-03T21:16:27.596Z,2.40
2022-10-03T21:19:00.980Z,1.70
2022-10-03T21:21:43.050Z,1.98
2022-10-03T21:24:15.608Z,1.70
2022-10-03T21:26:47.697Z,2.28
2022-10-03T21:29:17.105Z,1.90
2022-10-03T21:32:14.435Z,1.85
2022-10-03T21:34:52.798Z,2.08
2022-10-03T21:37:50.318Z,1.60
2022-10-03T21:40:32.662Z,1.73
2022-10-03T21:43:15.862Z,1.60
2022-10-03T21:45:55.939Z,2.13
2022-10-03T21:48:37.290Z,1.85
2022-10-03T21:51:52.078Z,1.90
2022-10-03T21:54:41.727Z,1.70
2022-10-03T22:00:12.397Z,1.60
2022-10-03T22:02:51.029Z,1.80
2022-10-03T22:05:29.248Z,2.00
2022-10-03T22:07:55.789Z,1.90
2022-10-03T22:10:24.543Z,2.25
2022-10-03T22:12:56.031Z,1.73
2022-10-03T22:15:55.020Z,2.13
2022-10-03T22:18:21.889Z,2.10
2022-10-03T22:21:02.467Z,2.35
2022-10-03T22:24:17.045Z,2.00
2022-10-03T22:26:52.143Z,2.40
2022-10-03T22:29:37.095Z,1.70
2022-10-03T22:32:13.106Z,2.00
2022-10-03T22:34:46.461Z,1.95
2022-10-03T22:37:14.829Z,2.08
2022-10-03T22:39:41.884Z,1.98
2022-10-03T22:42:12.957Z,1.80
2022-10-03T22:44:44.734Z,1.33
2022-10-03T22:47:19.116Z,1.80
2022-10-03T22:49:48.914Z,1.80
2022-10-03T22:52:24.282Z,1.90
2022-10-03T22:54:52.129Z,0.82
2022-10-03T22:57:19.197Z,2.03
2022-10-03T23:00:06.328Z,1.88
2022-10-03T23:03:05.230Z,2.00
2022-10-03T23:05:44.067Z,1.55
2022-10-03T23:08:19.008Z,2.00
2022-10-03T23:11:04.067Z,1.85
2022-10-03T23:13:44.818Z,1.50
2022-10-03T23:16:51.307Z,1.73
2022-10-03T23:19:32.895Z,1.75
2022-10-03T23:22:00.540Z,1.90
2022-10-03T23:24:39.159Z,1.90
2022-10-03T23:27:20.768Z,1.63
2022-10-03T23:30:12.873Z,1.80
2022-10-03T23:32:48.528Z,1.65
2022-10-03T23:35:19.036Z,1.90
2022-10-03T23:37:49.209Z,1.80
2022-10-03T23:40:39.996Z,1.80
2022-10-03T23:43:25.538Z,1.60
2022-10-03T23:45:55.304Z,1.55
2022-10-03T23:48:26.436Z,3.20
2022-10-03T23:51:06.646Z,2.03
2022-10-03T23:53:47.221Z,1.67
2022-10-03T23:56:22.503Z,1.30
2022-10-03T23:59:04.128Z,1.70
